CWP weather

Campo San Pablo Airstrip
Empalme, Sonora, Mexico

Public forecast

Using degrees Celsius for public forecast. Weather courtesy of forecast.io.

Closest aviation weather report (METAR) to Campo San Pablo Airstrip

Report is more than 6 hours old.

Closest report is General José María Yáñez International Airport, 14.3 nm (26.6 km) W. Retrieved 2020/05/31 01:41 UTC (12 hours ago):

MMGM 310141Z 25012KT 10SM SKC 31/23 A2966

Closest aviation forecast (TAF) to Campo San Pablo Airstrip

Forecast is more than 6 hours old.

Closest forecast is General José María Yáñez International Airport, 14.3 nm (26.6 km) W. Retrieved 2020/05/31 06:35 UTC (7 hours ago):

TAF MMGM 310428Z 3106/0106 24010KT P6SM SCT020 FM311200 00000KT 3SM BR BKN020 TEMPO 3112/3115 1SM BR FM311800 24015KT P6SM SCT200 FM010300 00000KT P6SM SCT020